Time;durP1;ratioP1;P1;durP2;ratioP2;P2;SDS_P1;SDS_P2;PMS_P1;PMS_P2;Temp;Humidity;BMP_temperature;BMP_pressure;BME280_temperature;BME280_humidity;BME280_pressure;Samples;Min_cycle;Max_cycle;Signal;HPM_P1;HPM_P2
2020/12/20 05:02:33;;;;;;;5.55;5.15;;;7.70;99.90;;;;;;5016256;23;20311;-68
2020/12/20 05:04:59;;;;;;;7.20;6.53;;;7.70;99.90;;;;;;4953192;29;20201;-68
2020/12/20 05:07:26;;;;;;;6.10;5.65;;;7.70;99.90;;;;;;4953780;28;20636;-68
2020/12/20 05:09:52;;;;;;;5.93;5.45;;;7.70;99.90;;;;;;4954006;28;20244;-68
2020/12/20 05:12:28;;;;;;;6.25;5.75;;;7.60;99.90;;;;;;4954219;28;20236;-66
2020/12/20 05:14:54;;;;;;;6.10;5.60;;;7.70;99.90;;;;;;4953443;28;20235;-68
2020/12/20 05:17:21;;;;;;;6.20;5.80;;;7.70;99.90;;;;;;4953700;28;20209;-68
2020/12/20 05:19:48;;;;;;;6.25;5.25;;;7.70;99.90;;;;;;4953038;28;20685;-68
2020/12/20 05:22:16;;;;;;;7.45;6.80;;;7.70;99.90;;;;;;4953096;28;20593;-68
2020/12/20 05:24:42;;;;;;;5.53;5.18;;;7.70;99.90;;;;;;4952633;28;20241;-68
2020/12/20 05:27:20;;;;;;;6.40;5.90;;;7.70;99.90;;;;;;4953862;28;20582;-67
2020/12/20 05:29:49;;;;;;;6.32;5.75;;;7.70;99.90;;;;;;4953106;28;20205;-68
2020/12/20 05:32:24;;;;;;;6.60;5.88;;;7.70;99.90;;;;;;4953802;28;20256;-68
2020/12/20 05:35:03;;;;;;;6.25;5.75;;;7.60;99.90;;;;;;4952645;28;20221;-68
2020/12/20 05:37:35;;;;;;;6.30;5.70;;;7.60;99.90;;;;;;4953629;28;20205;-68
2020/12/20 05:40:03;;;;;;;6.00;5.60;;;7.60;99.90;;;;;;4954336;28;20548;-68
2020/12/20 05:42:30;;;;;;;6.00;5.55;;;7.60;99.90;;;;;;4956849;28;20548;-68
2020/12/20 05:45:06;;;;;;;6.30;5.75;;;7.60;99.90;;;;;;4956297;28;20272;-67
2020/12/20 05:47:32;;;;;;;5.85;5.45;;;7.60;99.90;;;;;;4957110;28;20216;-68
2020/12/20 05:49:59;;;;;;;6.55;5.95;;;7.60;99.90;;;;;;4954772;28;20286;-68
2020/12/20 05:52:26;;;;;;;6.45;5.85;;;7.60;99.90;;;;;;4955946;28;20229;-68
2020/12/20 05:54:52;;;;;;;6.28;5.80;;;7.60;99.90;;;;;;4956344;28;20202;-68
2020/12/20 05:57:19;;;;;;;6.10;5.55;;;7.60;99.90;;;;;;4956375;28;20619;-68
2020/12/20 05:59:47;;;;;;;5.93;5.47;;;7.60;99.90;;;;;;4956332;28;20580;-69
2020/12/20 06:02:14;;;;;;;6.80;6.25;;;7.60;99.90;;;;;;4955638;28;20240;-67
2020/12/20 06:04:42;;;;;;;7.25;6.47;;;7.50;99.90;;;;;;4956088;28;20206;-66
2020/12/20 06:07:10;;;;;;;7.20;6.60;;;7.50;99.90;;;;;;4955787;28;20269;-67
2020/12/20 06:09:51;;;;;;;6.43;5.82;;;7.50;99.90;;;;;;4956132;28;20245;-67
2020/12/20 06:12:19;;;;;;;7.20;6.60;;;7.50;99.90;;;;;;4955631;28;20229;-66
2020/12/20 06:14:46;;;;;;;6.32;5.82;;;7.50;99.90;;;;;;4956323;28;20260;-66
2020/12/20 06:17:20;;;;;;;7.15;6.32;;;7.50;99.90;;;;;;4955460;28;20206;-66
2020/12/20 06:19:58;;;;;;;7.28;6.65;;;7.50;99.90;;;;;;4955468;28;20205;-66
2020/12/20 06:22:28;;;;;;;6.70;6.10;;;7.50;99.90;;;;;;4954932;28;20225;-66
2020/12/20 06:24:56;;;;;;;7.60;7.00;;;7.40;99.90;;;;;;4956372;28;20217;-66
2020/12/20 06:27:23;;;;;;;6.20;5.72;;;7.40;99.90;;;;;;4955016;28;20220;-66
2020/12/20 06:29:52;;;;;;;7.10;6.40;;;7.40;99.90;;;;;;4955819;28;20209;-67
2020/12/20 06:32:38;;;;;;;7.22;6.53;;;7.40;99.90;;;;;;4955242;28;20225;-67
2020/12/20 06:35:12;;;;;;;6.60;6.03;;;7.40;99.90;;;;;;4941998;29;20591;-67
2020/12/20 06:37:42;;;;;;;6.40;6.00;;;7.40;99.90;;;;;;4954776;28;20553;-67
2020/12/20 06:40:08;;;;;;;6.70;6.20;;;7.40;99.90;;;;;;4955097;28;20209;-67
2020/12/20 06:42:40;;;;;;;7.15;6.65;;;7.40;99.90;;;;;;4944752;29;20205;-67
2020/12/20 06:45:17;;;;;;;7.75;7.15;;;7.40;99.90;;;;;;4955869;28;20654;-67
2020/12/20 06:47:45;;;;;;;6.28;5.85;;;7.30;99.90;;;;;;4943328;29;20252;-67
2020/12/20 06:50:11;;;;;;;6.68;6.15;;;7.30;99.90;;;;;;4954615;28;20304;-66
2020/12/20 06:52:46;;;;;;;6.93;6.40;;;7.30;99.90;;;;;;4954726;28;20213;-67
2020/12/20 06:55:13;;;;;;;6.13;5.70;;;7.30;99.90;;;;;;4955581;28;20212;-67
2020/12/20 06:58:22;;;;;;;6.60;6.10;;;7.30;99.90;;;;;;4955472;28;20209;-67
2020/12/20 07:00:51;;;;;;;6.55;6.15;;;7.30;99.90;;;;;;4950990;29;20724;-67
2020/12/20 07:03:38;;;;;;;7.22;6.60;;;7.30;99.90;;;;;;4954765;28;20673;-66
2020/12/20 07:06:15;;;;;;;7.55;6.90;;;7.30;99.90;;;;;;4954537;28;20299;-67
2020/12/20 07:08:52;;;;;;;6.75;6.22;;;7.30;99.90;;;;;;4954842;28;20284;-66
2020/12/20 07:11:20;;;;;;;6.90;6.40;;;7.20;99.90;;;;;;4954169;28;20312;-67
2020/12/20 07:13:48;;;;;;;7.45;6.85;;;7.20;99.90;;;;;;4954872;28;20629;-67
2020/12/20 07:16:16;;;;;;;7.07;6.57;;;7.20;99.90;;;;;;4954551;28;20213;-66
2020/12/20 07:18:47;;;;;;;7.90;6.20;;;7.20;99.90;;;;;;4954560;28;20197;-66
2020/12/20 07:22:08;;;;;;;7.45;6.85;;;7.20;99.90;;;;;;4953464;29;20288;-67
2020/12/20 07:24:35;;;;;;;8.10;7.30;;;7.20;99.90;;;;;;4895505;29;20207;-67
2020/12/20 07:27:02;;;;;;;7.82;7.13;;;7.20;99.90;;;;;;4895581;29;20274;-66
2020/12/20 07:29:33;;;;;;;7.80;7.10;;;7.10;99.90;;;;;;4930089;28;20660;-66
2020/12/20 07:32:01;;;;;;;8.48;7.47;;;7.10;99.90;;;;;;4940918;29;20268;-67
2020/12/20 07:34:28;;;;;;;7.47;6.97;;;7.10;99.90;;;;;;4953837;28;20701;-67
2020/12/20 07:36:55;;;;;;;6.85;6.30;;;7.10;99.90;;;;;;4954204;28;20205;-67
2020/12/20 07:39:22;;;;;;;7.32;6.68;;;7.10;99.90;;;;;;4953483;29;20193;-67
2020/12/20 07:41:49;;;;;;;7.53;6.82;;;7.10;99.90;;;;;;4953815;28;20225;-67
2020/12/20 07:44:15;;;;;;;6.55;6.05;;;7.10;99.90;;;;;;4954784;29;20213;-67
2020/12/20 07:46:41;;;;;;;8.15;7.32;;;7.20;99.90;;;;;;4954561;28;20253;-67
2020/12/20 07:49:09;;;;;;;7.30;6.68;;;7.20;99.90;;;;;;4953312;28;20231;-67
2020/12/20 07:51:36;;;;;;;8.60;7.75;;;7.20;99.90;;;;;;4953419;28;20254;-67
2020/12/20 07:54:08;;;;;;;7.80;7.22;;;7.20;99.90;;;;;;4954921;29;20209;-67
2020/12/20 07:56:36;;;;;;;7.63;7.00;;;7.20;99.90;;;;;;4954717;28;20217;-67
2020/12/20 07:59:05;;;;;;;8.65;7.90;;;7.20;99.90;;;;;;4953831;28;20669;-67
2020/12/20 08:01:32;;;;;;;8.27;7.47;;;7.30;99.90;;;;;;4953919;28;20311;-67
2020/12/20 08:04:03;;;;;;;7.80;7.05;;;7.30;99.90;;;;;;4953690;28;20217;-67
2020/12/20 08:06:29;;;;;;;7.28;6.57;;;7.30;99.90;;;;;;4953928;28;20295;-66
2020/12/20 08:09:03;;;;;;;7.50;6.88;;;7.30;99.90;;;;;;4953967;28;20594;-67
2020/12/20 08:11:31;;;;;;;7.13;6.53;;;7.30;99.90;;;;;;4953322;28;20256;-67
2020/12/20 08:13:59;;;;;;;8.35;7.70;;;7.30;99.90;;;;;;4953538;28;20534;-67
2020/12/20 08:16:27;;;;;;;8.45;7.50;;;7.30;99.90;;;;;;4953803;28;20216;-67
2020/12/20 08:18:59;;;;;;;7.65;7.05;;;7.30;99.90;;;;;;4952092;28;20650;-67
2020/12/20 08:21:40;;;;;;;7.85;7.10;;;7.30;99.90;;;;;;4946182;29;20293;-68
2020/12/20 08:24:08;;;;;;;8.85;8.05;;;7.30;99.90;;;;;;4953628;28;20611;-67
2020/12/20 08:26:35;;;;;;;8.20;7.60;;;7.30;99.90;;;;;;4953893;28;20217;-67
2020/12/20 08:29:01;;;;;;;8.10;7.30;;;7.40;99.90;;;;;;4953841;28;20229;-67
2020/12/20 08:31:30;;;;;;;8.48;7.68;;;7.40;99.90;;;;;;4954145;28;20232;-67
2020/12/20 08:33:57;;;;;;;9.32;8.00;;;7.40;99.90;;;;;;4953176;28;20216;-67
2020/12/20 08:36:23;;;;;;;9.73;7.10;;;7.40;99.90;;;;;;4952707;28;20201;-69
2020/12/20 08:38:50;;;;;;;8.10;7.40;;;7.40;99.90;;;;;;4953378;28;20205;-66
2020/12/20 08:41:23;;;;;;;7.63;7.00;;;7.50;99.90;;;;;;4953381;28;20245;-67
2020/12/20 08:44:02;;;;;;;8.02;7.20;;;7.50;99.90;;;;;;4953288;28;20208;-66
2020/12/20 08:46:30;;;;;;;10.45;7.80;;;7.40;99.90;;;;;;4952634;28;20205;-66
2020/12/20 08:49:13;;;;;;;8.10;7.03;;;7.40;99.90;;;;;;4953259;28;20268;-67
2020/12/20 08:51:39;;;;;;;8.15;7.35;;;7.50;99.90;;;;;;4956867;28;20331;-67
2020/12/20 08:54:06;;;;;;;7.57;6.75;;;7.50;99.90;;;;;;4968411;28;20210;-67
2020/12/20 08:56:32;;;;;;;8.48;7.78;;;7.50;99.90;;;;;;4953385;28;20209;-67
2020/12/20 08:58:59;;;;;;;7.97;7.38;;;7.50;99.90;;;;;;4948704;28;20232;-67
2020/12/20 09:01:26;;;;;;;8.50;7.85;;;7.60;99.90;;;;;;4950026;28;20241;-67
2020/12/20 09:03:54;;;;;;;8.70;7.93;;;7.50;99.90;;;;;;4935081;29;20590;-67
2020/12/20 09:06:20;;;;;;;8.25;7.57;;;7.50;99.90;;;;;;4952694;28;20969;-67
2020/12/20 09:08:46;;;;;;;8.65;7.93;;;7.60;99.90;;;;;;4953479;28;20324;-68
2020/12/20 09:11:24;;;;;;;7.55;6.65;;;7.60;99.90;;;;;;4953554;28;20232;-66
2020/12/20 09:13:50;;;;;;;7.63;7.03;;;7.60;99.90;;;;;;4953395;28;20300;-66
2020/12/20 09:16:16;;;;;;;8.48;7.10;;;7.60;99.90;;;;;;4956972;28;20564;-69
2020/12/20 09:18:43;;;;;;;8.20;7.50;;;7.70;99.90;;;;;;4956450;28;20657;-69
2020/12/20 09:21:10;;;;;;;8.32;7.63;;;7.70;99.90;;;;;;4956290;28;20685;-69
2020/12/20 09:23:36;;;;;;;10.27;7.95;;;7.70;99.90;;;;;;4956549;28;20220;-68
2020/12/20 09:26:04;;;;;;;8.63;7.72;;;7.70;99.90;;;;;;4956630;28;20209;-67
2020/12/20 09:28:33;;;;;;;8.35;7.47;;;7.80;99.90;;;;;;4956602;28;22002;-67
2020/12/20 09:31:01;;;;;;;7.07;6.47;;;7.80;99.90;;;;;;4955788;28;20221;-68
2020/12/20 09:33:29;;;;;;;8.18;7.43;;;7.80;99.90;;;;;;4955915;28;20357;-69
2020/12/20 09:36:01;;;;;;;7.47;6.75;;;7.90;99.90;;;;;;4956107;28;20797;-68
2020/12/20 09:38:30;;;;;;;8.77;7.90;;;8.00;99.90;;;;;;4957003;28;20293;-68
2020/12/20 09:41:02;;;;;;;8.60;7.90;;;8.00;99.90;;;;;;4956986;28;20319;-67
2020/12/20 09:43:28;;;;;;;8.52;7.78;;;8.00;99.90;;;;;;4955638;28;20213;-68
2020/12/20 09:45:55;;;;;;;9.32;8.30;;;8.00;99.90;;;;;;4956479;28;20213;-67
2020/12/20 09:48:21;;;;;;;8.90;7.95;;;8.00;99.90;;;;;;4956169;28;20600;-67
2020/12/20 09:50:47;;;;;;;7.80;7.20;;;8.00;99.90;;;;;;4956267;28;20229;-68
2020/12/20 09:53:13;;;;;;;8.75;7.95;;;8.00;99.90;;;;;;4955250;28;20224;-69
2020/12/20 09:55:42;;;;;;;8.50;7.80;;;8.10;99.90;;;;;;4955994;28;20609;-67
2020/12/20 09:58:09;;;;;;;7.55;6.80;;;8.10;99.90;;;;;;4948770;28;20229;-69
2020/12/20 10:00:35;;;;;;;8.50;7.80;;;8.10;99.90;;;;;;4956313;28;20316;-70
2020/12/20 10:03:02;;;;;;;9.60;8.60;;;8.00;99.90;;;;;;4955802;28;20225;-70
2020/12/20 10:05:28;;;;;;;9.95;8.95;;;8.00;99.90;;;;;;4956662;28;20212;-70
2020/12/20 10:07:54;;;;;;;9.18;8.32;;;8.10;99.90;;;;;;4955365;28;20697;-67
2020/12/20 10:10:20;;;;;;;10.80;8.10;;;8.10;99.90;;;;;;4956146;28;20217;-69
2020/12/20 10:12:48;;;;;;;8.68;7.97;;;8.10;99.90;;;;;;4954806;28;20610;-67
2020/12/20 10:15:14;;;;;;;9.15;8.25;;;8.10;99.90;;;;;;4956213;28;20596;-67
2020/12/20 10:17:40;;;;;;;9.43;8.52;;;8.10;99.90;;;;;;4956105;28;20201;-70
2020/12/20 10:20:06;;;;;;;10.68;8.43;;;8.20;99.90;;;;;;4954736;28;20217;-70
2020/12/20 10:22:32;;;;;;;8.50;7.80;;;8.20;99.90;;;;;;4954919;28;20577;-70
2020/12/20 10:24:58;;;;;;;9.88;8.85;;;8.20;99.90;;;;;;4956577;28;20631;-70
2020/12/20 10:27:24;;;;;;;9.10;8.30;;;8.20;99.90;;;;;;4955200;28;20602;-70
2020/12/20 10:29:51;;;;;;;9.63;8.63;;;8.20;99.90;;;;;;4955877;28;20225;-67
2020/12/20 10:32:18;;;;;;;9.82;8.98;;;8.20;99.90;;;;;;4955292;28;20233;-68
2020/12/20 10:34:44;;;;;;;9.65;8.75;;;8.20;99.90;;;;;;4955814;28;20623;-68
2020/12/20 10:37:10;;;;;;;13.30;8.55;;;8.20;99.90;;;;;;4955790;28;20256;-68
2020/12/20 10:39:36;;;;;;;10.88;9.82;;;8.20;99.90;;;;;;4955827;28;20545;-68
2020/12/20 10:42:02;;;;;;;12.07;9.40;;;8.20;99.90;;;;;;4954831;28;20723;-68
2020/12/20 10:44:28;;;;;;;11.27;10.18;;;8.20;99.90;;;;;;4956308;28;20213;-68
2020/12/20 10:46:56;;;;;;;11.18;9.48;;;8.20;99.90;;;;;;4956174;28;20296;-67
2020/12/20 10:49:22;;;;;;;10.90;9.85;;;8.20;99.90;;;;;;4955246;28;20284;-67
2020/12/20 10:51:52;;;;;;;10.65;9.75;;;8.20;99.90;;;;;;4955002;28;20232;-67
2020/12/20 10:54:18;;;;;;;11.35;10.20;;;8.20;99.90;;;;;;4956090;28;20244;-67
2020/12/20 10:56:46;;;;;;;12.82;10.13;;;8.20;99.90;;;;;;4956087;28;20272;-68
2020/12/20 10:59:12;;;;;;;12.52;10.60;;;8.20;99.90;;;;;;4955967;28;20205;-67
2020/12/20 11:01:38;;;;;;;11.85;10.55;;;8.10;99.90;;;;;;4954581;28;20228;-67
2020/12/20 11:04:05;;;;;;;12.10;10.50;;;8.20;99.90;;;;;;4956113;28;20213;-67
2020/12/20 11:06:32;;;;;;;10.80;9.70;;;8.20;99.90;;;;;;4955580;28;20236;-69
2020/12/20 11:08:58;;;;;;;11.98;10.88;;;8.20;99.90;;;;;;4955576;28;20314;-68
2020/12/20 11:11:29;;;;;;;12.15;9.98;;;8.20;99.90;;;;;;4955169;28;20693;-68
2020/12/20 11:13:56;;;;;;;11.25;9.70;;;8.10;99.90;;;;;;4955979;28;20201;-69
2020/12/20 11:16:22;;;;;;;11.90;9.73;;;8.10;99.90;;;;;;4956160;28;20205;-69
2020/12/20 11:18:48;;;;;;;13.52;10.05;;;8.10;99.90;;;;;;4954896;28;20212;-69
2020/12/20 11:21:17;;;;;;;10.70;9.60;;;8.10;99.90;;;;;;4954520;28;20228;-69
2020/12/20 11:23:44;;;;;;;14.20;10.27;;;8.10;99.90;;;;;;4957949;28;20242;-69
2020/12/20 11:26:11;;;;;;;11.18;10.02;;;8.10;99.90;;;;;;4963486;28;20220;-69
2020/12/20 11:28:38;;;;;;;14.43;9.75;;;8.20;99.90;;;;;;4960077;28;20584;-69
2020/12/20 11:31:04;;;;;;;12.45;11.35;;;8.20;99.90;;;;;;4955723;28;20311;-69
2020/12/20 11:33:31;;;;;;;14.55;10.52;;;8.20;99.90;;;;;;4956037;28;20220;-67
2020/12/20 11:35:57;;;;;;;15.63;10.43;;;8.20;99.90;;;;;;4959032;28;20220;-68
2020/12/20 11:38:24;;;;;;;12.57;10.63;;;8.20;99.90;;;;;;4959495;28;20662;-67
2020/12/20 11:40:51;;;;;;;13.57;11.55;;;8.20;99.90;;;;;;4958705;28;20256;-67
2020/12/20 11:43:17;;;;;;;13.18;11.13;;;8.20;99.90;;;;;;4955651;28;20213;-67
2020/12/20 11:45:45;;;;;;;11.23;10.10;;;8.20;99.90;;;;;;4955961;28;20579;-67
2020/12/20 11:48:12;;;;;;;12.10;10.93;;;8.30;99.90;;;;;;4954656;28;20252;-67
2020/12/20 11:50:39;;;;;;;11.80;10.60;;;8.30;99.90;;;;;;4955563;28;20233;-67
2020/12/20 11:53:05;;;;;;;11.93;10.82;;;8.30;99.90;;;;;;4954773;28;20248;-68
2020/12/20 11:55:32;;;;;;;11.90;10.60;;;8.30;99.90;;;;;;4955731;28;20213;-67
2020/12/20 11:57:58;;;;;;;11.23;10.13;;;8.40;99.90;;;;;;4954908;28;20209;-67
2020/12/20 12:00:28;;;;;;;14.18;10.85;;;8.40;99.90;;;;;;4955719;28;20240;-68
2020/12/20 12:02:54;;;;;;;10.93;9.90;;;8.50;99.90;;;;;;4954668;28;20681;-67
2020/12/20 12:05:21;;;;;;;14.80;10.98;;;8.50;99.90;;;;;;4956224;28;20678;-68
2020/12/20 12:07:47;;;;;;;11.85;10.75;;;8.50;99.90;;;;;;4955078;28;20206;-67
2020/12/20 12:10:13;;;;;;;12.60;10.10;;;8.50;99.90;;;;;;4955395;28;20240;-68
2020/12/20 12:12:41;;;;;;;12.40;10.77;;;8.50;99.90;;;;;;4955197;28;20221;-68
2020/12/20 12:15:09;;;;;;;12.18;10.80;;;8.60;99.90;;;;;;4956248;28;20232;-67
2020/12/20 12:17:35;;;;;;;11.85;10.65;;;8.60;99.90;;;;;;4956227;28;20248;-68
2020/12/20 12:20:02;;;;;;;11.82;10.63;;;8.60;99.90;;;;;;4956416;28;20686;-67
2020/12/20 12:22:28;;;;;;;10.77;9.70;;;8.60;99.90;;;;;;4955365;28;20729;-68
2020/12/20 12:24:54;;;;;;;10.98;10.07;;;8.60;99.90;;;;;;4958631;28;20637;-67
2020/12/20 12:27:20;;;;;;;10.88;9.88;;;8.60;99.90;;;;;;4960079;28;20209;-69
2020/12/20 12:29:48;;;;;;;10.32;9.30;;;8.60;99.90;;;;;;4959519;28;21434;-67
2020/12/20 12:32:14;;;;;;;11.05;9.95;;;8.70;99.90;;;;;;4958588;28;20233;-68
2020/12/20 12:34:40;;;;;;;11.40;10.10;;;8.70;99.90;;;;;;4958817;28;20213;-69
2020/12/20 12:37:06;;;;;;;10.75;9.65;;;8.70;99.90;;;;;;4959811;29;20629;-69
2020/12/20 12:39:33;;;;;;;12.27;9.60;;;8.70;99.90;;;;;;4959975;28;20213;-70
2020/12/20 12:42:03;;;;;;;11.30;10.27;;;8.70;99.90;;;;;;4958254;28;20280;-69
2020/12/20 12:44:29;;;;;;;11.48;10.27;;;8.70;99.90;;;;;;4945168;29;20205;-69
2020/12/20 12:46:56;;;;;;;11.02;9.93;;;8.70;99.90;;;;;;4959410;28;20209;-67
2020/12/20 12:49:23;;;;;;;10.25;9.23;;;8.60;99.90;;;;;;4957080;28;20716;-70
2020/12/20 12:51:49;;;;;;;11.40;10.40;;;8.70;99.90;;;;;;4956906;28;20232;-68
2020/12/20 12:54:15;;;;;;;10.93;9.98;;;8.70;99.90;;;;;;4954153;28;20268;-68
2020/12/20 12:56:45;;;;;;;11.57;10.38;;;8.70;99.90;;;;;;4954333;28;20224;-68
2020/12/20 12:59:12;;;;;;;12.05;10.52;;;8.70;99.90;;;;;;4953658;28;20216;-68
2020/12/20 13:01:38;;;;;;;12.23;9.38;;;8.70;99.90;;;;;;4953394;28;20288;-67
2020/12/20 13:04:09;;;;;;;10.65;9.65;;;8.80;99.90;;;;;;4952761;28;20661;-68
2020/12/20 13:06:35;;;;;;;14.73;9.63;;;8.80;99.90;;;;;;4953220;28;20245;-68
2020/12/20 13:09:02;;;;;;;11.13;10.02;;;8.80;99.90;;;;;;4955254;28;20229;-68
2020/12/20 13:11:28;;;;;;;10.73;9.63;;;8.80;99.90;;;;;;4958065;28;20217;-68
2020/12/20 13:13:55;;;;;;;9.82;9.02;;;8.80;99.90;;;;;;4964191;28;20211;-68
2020/12/20 13:16:21;;;;;;;11.48;10.35;;;8.70;99.90;;;;;;4953269;28;20209;-68
2020/12/20 13:18:47;;;;;;;12.68;11.13;;;8.80;99.90;;;;;;4953515;28;20198;-68
2020/12/20 13:21:18;;;;;;;10.05;9.07;;;8.80;99.90;;;;;;4952662;29;20224;-67
2020/12/20 13:23:45;;;;;;;10.35;9.10;;;8.80;99.90;;;;;;4953223;28;20236;-68
2020/12/20 13:26:11;;;;;;;11.30;10.20;;;8.80;99.90;;;;;;4954182;28;20217;-68
2020/12/20 13:28:38;;;;;;;11.32;10.20;;;8.80;99.90;;;;;;4953994;28;20724;-69
2020/12/20 13:31:04;;;;;;;11.27;9.90;;;8.80;99.90;;;;;;4953629;28;20229;-68
2020/12/20 13:33:30;;;;;;;11.52;10.43;;;8.80;99.90;;;;;;4952716;28;20209;-68
2020/12/20 13:35:57;;;;;;;9.38;8.45;;;8.80;99.90;;;;;;4953138;28;20213;-68
2020/12/20 13:38:27;;;;;;;10.90;9.90;;;8.80;99.90;;;;;;4953917;28;20512;-69
2020/12/20 13:40:53;;;;;;;11.13;10.13;;;8.70;99.90;;;;;;4953613;28;20233;-68
2020/12/20 13:43:20;;;;;;;12.63;10.68;;;8.70;99.90;;;;;;4953153;28;20222;-68
2020/12/20 13:45:46;;;;;;;11.32;9.45;;;8.70;99.90;;;;;;4953519;28;20335;-68
2020/12/20 13:48:12;;;;;;;15.60;12.43;;;8.70;99.90;;;;;;4952778;28;20344;-68
2020/12/20 13:50:39;;;;;;;16.33;13.35;;;8.70;99.90;;;;;;4952773;28;20228;-68
2020/12/20 13:53:05;;;;;;;11.82;9.90;;;8.70;99.90;;;;;;4952029;28;20217;-68
2020/12/20 13:55:32;;;;;;;16.67;11.32;;;8.70;99.90;;;;;;4953321;28;20562;-68
2020/12/20 13:57:58;;;;;;;19.13;13.98;;;8.70;99.90;;;;;;4953854;28;20261;-68
2020/12/20 14:00:24;;;;;;;16.10;13.60;;;8.70;99.90;;;;;;4953285;28;20236;-68
2020/12/20 14:02:50;;;;;;;13.07;11.73;;;8.70;99.90;;;;;;4955894;28;20220;-68
2020/12/20 14:05:17;;;;;;;16.60;13.60;;;8.70;99.90;;;;;;4955819;28;20646;-68
2020/12/20 14:07:43;;;;;;;21.55;15.77;;;8.70;99.90;;;;;;4956137;28;20202;-69
2020/12/20 14:10:10;;;;;;;14.43;11.05;;;8.70;99.90;;;;;;4956883;28;20229;-68
2020/12/20 14:12:37;;;;;;;15.25;10.95;;;8.70;99.90;;;;;;4956128;28;20276;-67
2020/12/20 14:15:06;;;;;;;14.70;12.27;;;8.70;99.90;;;;;;4959979;28;20232;-67
2020/12/20 14:17:33;;;;;;;18.13;13.45;;;8.70;99.90;;;;;;4956117;28;20229;-67
2020/12/20 14:19:59;;;;;;;15.90;12.88;;;8.60;99.90;;;;;;4956258;28;20201;-67
2020/12/20 14:22:25;;;;;;;12.68;11.48;;;8.60;99.90;;;;;;4954592;28;20225;-67
2020/12/20 14:24:51;;;;;;;17.15;12.02;;;8.60;99.90;;;;;;4944439;28;20331;-66
2020/12/20 14:27:17;;;;;;;13.07;11.77;;;8.60;99.90;;;;;;4951232;28;20213;-66
2020/12/20 14:29:44;;;;;;;15.48;11.00;;;8.60;99.90;;;;;;4953766;28;20236;-66
2020/12/20 14:32:11;;;;;;;12.35;11.05;;;8.60;99.90;;;;;;4954946;29;20221;-66
2020/12/20 14:34:37;;;;;;;14.70;11.32;;;8.60;99.90;;;;;;4955776;28;20213;-66
2020/12/20 14:37:03;;;;;;;14.18;12.20;;;8.60;99.90;;;;;;4955103;28;20299;-66
2020/12/20 14:39:30;;;;;;;13.55;12.25;;;8.60;99.90;;;;;;4955339;28;20213;-66
2020/12/20 14:41:56;;;;;;;17.10;11.77;;;8.50;99.90;;;;;;4954572;28;20295;-66
2020/12/20 14:44:22;;;;;;;12.40;10.60;;;8.50;99.90;;;;;;4955310;28;20205;-66
2020/12/20 14:46:49;;;;;;;11.98;10.75;;;8.50;99.90;;;;;;4955372;28;20260;-67
2020/12/20 14:49:16;;;;;;;10.65;9.52;;;8.50;99.90;;;;;;4954990;28;20228;-68
2020/12/20 14:51:42;;;;;;;12.18;10.57;;;8.50;99.90;;;;;;4963212;28;20233;-68
2020/12/20 14:54:10;;;;;;;11.75;10.65;;;8.50;99.90;;;;;;4962387;28;20206;-67
2020/12/20 14:56:37;;;;;;;11.68;10.50;;;8.50;99.90;;;;;;4945461;28;20269;-67
2020/12/20 14:59:03;;;;;;;13.38;10.38;;;8.50;99.90;;;;;;4946864;28;20212;-67
2020/12/20 15:01:29;;;;;;;12.63;11.18;;;8.40;99.90;;;;;;4948209;28;20319;-68
2020/12/20 15:03:56;;;;;;;12.32;11.02;;;8.40;99.90;;;;;;4955374;28;20212;-67
2020/12/20 15:06:23;;;;;;;11.30;10.13;;;8.40;99.90;;;;;;4954887;28;20615;-67
2020/12/20 15:08:49;;;;;;;13.70;12.25;;;8.40;99.90;;;;;;4955024;28;20221;-67
2020/12/20 15:11:16;;;;;;;12.93;11.13;;;8.40;99.90;;;;;;4954869;28;20732;-67
2020/12/20 15:13:43;;;;;;;13.57;11.55;;;8.40;99.90;;;;;;4953915;28;20228;-67
2020/12/20 15:16:10;;;;;;;15.43;11.73;;;8.40;99.90;;;;;;4951423;28;21096;-68
2020/12/20 15:18:37;;;;;;;12.43;10.40;;;8.40;99.90;;;;;;4948400;28;20214;-67
2020/12/20 15:21:04;;;;;;;13.85;12.02;;;8.30;99.90;;;;;;4952560;28;20244;-67
2020/12/20 15:23:31;;;;;;;12.88;11.68;;;8.30;99.90;;;;;;4955273;28;20661;-67
2020/12/20 15:25:57;;;;;;;14.15;11.85;;;8.30;99.90;;;;;;4942002;28;20217;-67
2020/12/20 15:28:23;;;;;;;13.60;11.95;;;8.30;99.90;;;;;;4949020;28;20209;-67
2020/12/20 15:30:50;;;;;;;13.13;10.57;;;8.30;99.90;;;;;;4954798;28;20230;-67
2020/12/20 15:33:16;;;;;;;11.45;10.30;;;8.30;99.90;;;;;;4953880;28;20217;-67
2020/12/20 15:35:43;;;;;;;14.10;12.68;;;8.20;99.90;;;;;;4955935;28;20620;-66
2020/12/20 15:38:10;;;;;;;12.68;10.65;;;8.20;99.90;;;;;;4954195;28;20208;-67
2020/12/20 15:40:37;;;;;;;15.00;12.07;;;8.20;99.90;;;;;;4953366;28;20296;-66
2020/12/20 15:43:04;;;;;;;14.25;12.68;;;8.20;99.90;;;;;;4953743;28;20674;-67
2020/12/20 15:45:30;;;;;;;13.85;12.50;;;8.20;99.90;;;;;;4955254;28;20213;-67
2020/12/20 15:47:57;;;;;;;14.00;12.40;;;8.20;99.90;;;;;;4954061;28;21001;-67
2020/12/20 15:50:23;;;;;;;17.55;15.73;;;8.20;99.90;;;;;;4953295;28;20229;-67
2020/12/20 15:52:49;;;;;;;15.65;13.23;;;8.10;99.90;;;;;;4952690;28;20209;-67
2020/12/20 15:55:16;;;;;;;18.30;14.90;;;8.10;99.90;;;;;;4953308;28;20213;-67
2020/12/20 15:57:42;;;;;;;18.70;14.20;;;8.10;99.90;;;;;;4953981;28;20208;-67
2020/12/20 16:00:09;;;;;;;20.80;15.32;;;8.10;99.90;;;;;;4954120;28;20212;-67
2020/12/20 16:02:35;;;;;;;18.70;15.50;;;8.10;99.90;;;;;;4952823;28;20221;-68
2020/12/20 16:05:01;;;;;;;14.45;12.90;;;8.10;99.90;;;;;;4954070;28;20608;-67
2020/12/20 16:07:28;;;;;;;15.90;14.15;;;8.10;99.90;;;;;;4954253;28;20247;-67
2020/12/20 16:09:54;;;;;;;13.60;11.60;;;8.00;99.90;;;;;;4953717;28;20217;-68
2020/12/20 16:12:21;;;;;;;14.90;13.40;;;8.00;99.90;;;;;;4952440;28;20243;-68
2020/12/20 16:14:47;;;;;;;18.40;13.40;;;8.00;99.90;;;;;;4954348;28;20201;-68
2020/12/20 16:17:13;;;;;;;14.82;13.27;;;8.00;99.90;;;;;;4954443;28;20208;-67
2020/12/20 16:19:40;;;;;;;19.77;13.88;;;8.00;99.90;;;;;;4953550;28;20194;-69
2020/12/20 16:22:06;;;;;;;13.73;12.30;;;8.10;99.90;;;;;;4952667;28;20620;-68
2020/12/20 16:24:33;;;;;;;19.15;15.60;;;8.00;99.90;;;;;;4953489;28;20280;-68
2020/12/20 16:26:59;;;;;;;14.35;12.70;;;8.00;99.90;;;;;;4953346;28;20201;-68
2020/12/20 16:29:26;;;;;;;19.05;13.00;;;8.00;99.90;;;;;;4953641;29;20286;-68
2020/12/20 16:31:56;;;;;;;14.52;12.10;;;8.00;99.90;;;;;;4953523;28;20245;-68
2020/12/20 16:34:25;;;;;;;16.45;13.63;;;8.00;99.90;;;;;;4953192;28;20708;-68
2020/12/20 16:36:53;;;;;;;15.55;13.90;;;8.00;99.90;;;;;;4953140;28;20213;-68
2020/12/20 16:39:20;;;;;;;16.63;13.82;;;8.00;99.90;;;;;;4952372;28;20201;-68
2020/12/20 16:41:46;;;;;;;16.65;12.75;;;8.00;99.90;;;;;;4952920;28;20229;-68
2020/12/20 16:44:14;;;;;;;14.73;12.10;;;8.00;99.90;;;;;;4952906;28;20256;-67
2020/12/20 16:46:42;;;;;;;16.50;13.20;;;8.00;99.90;;;;;;4953923;28;20238;-68
2020/12/20 16:49:08;;;;;;;14.65;12.82;;;8.00;99.90;;;;;;4951963;28;21865;-67
2020/12/20 16:51:36;;;;;;;14.52;12.60;;;8.00;99.90;;;;;;4953436;28;20229;-67
2020/12/20 16:54:02;;;;;;;14.98;12.88;;;8.00;99.90;;;;;;4953508;28;20297;-68
2020/12/20 16:56:30;;;;;;;18.25;13.52;;;8.00;99.90;;;;;;4954144;28;20205;-68
2020/12/20 16:58:56;;;;;;;14.60;11.85;;;8.00;99.90;;;;;;4952915;28;20244;-69
2020/12/20 17:01:23;;;;;;;16.42;12.73;;;7.90;99.90;;;;;;4953717;28;20237;-69
2020/12/20 17:03:50;;;;;;;14.55;13.02;;;7.90;99.90;;;;;;4948935;29;20288;-69
2020/12/20 17:06:16;;;;;;;15.43;13.30;;;7.90;99.90;;;;;;4953277;28;20225;-69
2020/12/20 17:08:42;;;;;;;16.15;13.68;;;7.90;99.90;;;;;;4952664;28;20205;-70
2020/12/20 17:11:11;;;;;;;18.85;12.82;;;7.90;99.90;;;;;;4943121;28;20620;-68
2020/12/20 17:13:37;;;;;;;16.85;13.15;;;7.90;99.90;;;;;;4952677;29;20205;-68
2020/12/20 17:16:04;;;;;;;15.77;13.23;;;7.80;99.90;;;;;;4953544;28;20280;-68
2020/12/20 17:18:30;;;;;;;16.20;14.38;;;7.90;99.90;;;;;;4953278;28;20232;-68
2020/12/20 17:20:57;;;;;;;16.40;13.32;;;7.80;99.90;;;;;;4951398;28;20381;-68
2020/12/20 17:23:23;;;;;;;14.57;13.18;;;7.80;99.90;;;;;;4950207;29;20201;-68
2020/12/20 17:25:49;;;;;;;16.35;14.05;;;7.80;99.90;;;;;;4953247;29;20205;-69
2020/12/20 17:28:16;;;;;;;16.05;13.40;;;7.80;99.90;;;;;;4952884;28;20216;-69
2020/12/20 17:30:42;;;;;;;14.20;12.13;;;7.90;99.90;;;;;;4952132;28;20241;-69
2020/12/20 17:33:08;;;;;;;15.85;13.23;;;7.80;99.90;;;;;;4953379;28;20237;-69
2020/12/20 17:35:34;;;;;;;13.73;11.75;;;7.80;99.90;;;;;;4954794;28;20212;-69
2020/12/20 17:38:01;;;;;;;14.63;12.05;;;7.80;99.90;;;;;;4955089;28;20669;-69
2020/12/20 17:40:27;;;;;;;14.20;12.48;;;7.80;99.90;;;;;;4954753;28;20229;-69
2020/12/20 17:42:54;;;;;;;18.00;12.70;;;7.80;99.90;;;;;;4954936;28;20621;-68
2020/12/20 17:45:20;;;;;;;14.43;12.80;;;7.80;99.90;;;;;;4955878;28;20216;-69
2020/12/20 17:47:46;;;;;;;13.90;11.77;;;7.80;99.90;;;;;;4955312;28;20217;-69
2020/12/20 17:50:12;;;;;;;14.88;12.20;;;7.90;99.90;;;;;;4952071;28;20240;-68